Time;durP1;ratioP1;P1;durP2;ratioP2;P2;SDS_P1;SDS_P2;PMS_P1;PMS_P2;Temp;Humidity;BMP_temperature;BMP_pressure;BME280_temperature;BME280_humidity;BME280_pressure;Samples;Min_cycle;Max_cycle;Signal;HPM_P1;HPM_P2
2022/09/10 00:01:34;;;;;;;7.97;1.20;;;;;;;14.86;100.00;100409.94;4935125;28;20126;-82
2022/09/10 00:04:02;;;;;;;2.03;0.60;;;;;;;14.87;100.00;100409.03;4910056;28;20051;-82
2022/09/10 00:06:34;;;;;;;0.77;0.30;;;;;;;14.84;100.00;100410.00;4930943;28;20119;-82
2022/09/10 00:09:01;;;;;;;0.85;0.45;;;;;;;14.79;100.00;100411.91;4930561;29;20057;-82
2022/09/10 00:11:33;;;;;;;1.10;0.30;;;;;;;14.77;100.00;100410.22;4917874;28;20047;-83
2022/09/10 00:14:03;;;;;;;1.13;1.02;;;;;;;14.76;100.00;100409.38;4931260;28;20161;-83
2022/09/10 00:16:31;;;;;;;0.80;0.20;;;;;;;14.75;100.00;100401.50;4916365;28;20051;-82
2022/09/10 00:18:59;;;;;;;0.40;0.30;;;;;;;14.74;100.00;100399.78;4917850;28;20062;-83
2022/09/10 00:21:27;;;;;;;0.82;0.28;;;;;;;14.75;100.00;100398.88;4913197;28;20829;-82
2022/09/10 00:23:53;;;;;;;1.45;0.20;;;;;;;14.76;100.00;100400.59;4932158;28;20067;-84
2022/09/10 00:26:30;;;;;;;3.30;0.40;;;;;;;14.76;100.00;100398.81;4915837;28;20110;-82
2022/09/10 00:28:58;;;;;;;0.28;0.28;;;;;;;14.72;100.00;100391.94;4915144;28;20194;-84
2022/09/10 00:31:26;;;;;;;0.20;0.20;;;;;;;14.70;100.00;100397.22;4930214;28;20063;-82
2022/09/10 00:33:53;;;;;;;0.40;0.32;;;;;;;14.70;100.00;100397.22;4914640;28;20062;-83
2022/09/10 00:36:23;;;;;;;1.65;0.30;;;;;;;14.71;100.00;100400.75;4913881;28;20860;-81
2022/09/10 00:38:52;;;;;;;0.60;0.30;;;;;;;14.71;100.00;100387.56;4918073;28;20055;-82
2022/09/10 00:41:20;;;;;;;3.92;0.60;;;;;;;14.71;100.00;100395.47;4928308;28;20142;-81
2022/09/10 00:44:03;;;;;;;1.85;0.30;;;;;;;14.70;100.00;100386.69;4927080;29;20055;-84
2022/09/10 00:46:47;;;;;;;1.33;0.40;;;;;;;14.70;100.00;100391.94;4929983;28;20047;-82
2022/09/10 00:49:33;;;;;;;0.95;0.28;;;;;;;14.71;100.00;100388.41;4917867;28;20111;-83
2022/09/10 00:52:00;;;;;;;1.75;0.40;;;;;;;14.71;100.00;100396.31;4935908;28;20047;-82
2022/09/10 00:54:29;;;;;;;0.73;0.35;;;;;;;14.73;100.00;100401.53;4936740;28;20058;-83
2022/09/10 00:57:00;;;;;;;0.50;0.50;;;;;;;14.72;100.00;100397.19;4935120;28;20052;-83
2022/09/10 00:59:27;;;;;;;0.35;0.25;;;;;;;14.71;100.00;100393.69;4916136;28;20155;-82
2022/09/10 01:01:55;;;;;;;1.83;0.55;;;;;;;14.70;100.00;100389.31;4917217;28;20138;-83
2022/09/10 01:04:22;;;;;;;1.45;0.35;;;;;;;14.69;100.00;100389.38;4925551;28;20044;-84
2022/09/10 01:06:51;;;;;;;1.40;0.50;;;;;;;14.68;100.00;100380.63;4912962;28;20083;-82
2022/09/10 01:09:19;;;;;;;0.82;0.30;;;;;;;14.67;100.00;100384.16;4927483;28;20091;-83
2022/09/10 01:12:18;;;;;;;2.10;0.68;;;;;;;14.66;100.00;100387.69;4932280;28;20138;-83
2022/09/10 01:15:05;;;;;;;1.08;0.50;;;;;;;14.66;100.00;100384.22;4957405;28;20047;-83
2022/09/10 01:18:02;;;;;;;1.77;0.30;;;;;;;14.66;100.00;100394.75;4943452;28;20058;-81
2022/09/10 01:21:09;;;;;;;1.13;0.50;;;;;;;14.61;100.00;100389.56;4915775;28;20055;-82
2022/09/10 01:24:01;;;;;;;0.85;0.30;;;;;;;14.61;100.00;100393.97;4920318;28;20047;-82
2022/09/10 01:27:00;;;;;;;1.08;0.40;;;;;;;14.56;100.00;100400.25;4932529;28;20554;-82
2022/09/10 01:29:39;;;;;;;0.73;0.50;;;;;;;14.53;100.00;100407.38;4913756;28;20051;-83
2022/09/10 01:32:22;;;;;;;0.95;0.70;;;;;;;14.51;100.00;100404.78;4934019;29;20051;-83
2022/09/10 01:35:24;;;;;;;2.53;0.50;;;;;;;14.47;100.00;100400.53;4931233;28;20059;-82
2022/09/10 01:37:56;;;;;;;2.03;0.65;;;;;;;14.48;100.00;100406.66;4934528;28;20055;-81
2022/09/10 01:40:28;;;;;;;1.00;0.40;;;;;;;14.48;100.00;100409.28;4916275;28;20054;-83
2022/09/10 01:43:01;;;;;;;2.00;0.88;;;;;;;14.47;100.00;100403.16;4931418;28;20149;-82
2022/09/10 01:45:28;;;;;;;2.57;0.80;;;;;;;14.49;100.00;100403.13;4930766;28;20062;-82
2022/09/10 01:48:44;;;;;;;2.10;0.95;;;;;;;14.51;100.00;100410.06;4920227;28;20384;-82
2022/09/10 01:51:53;;;;;;;1.02;0.60;;;;;;;14.51;100.00;100412.69;4938413;28;20495;-82
2022/09/10 01:54:45;;;;;;;1.77;0.82;;;;;;;14.50;100.00;100415.38;4931513;28;20079;-85
2022/09/10 01:57:47;;;;;;;4.00;0.80;;;;;;;14.53;100.00;100420.56;4956628;28;20041;-84
2022/09/10 02:00:17;;;;;;;0.73;0.70;;;;;;;14.52;100.00;100418.81;4922203;28;20070;-83
2022/09/10 02:02:56;;;;;;;0.98;0.47;;;;;;;14.53;100.00;100420.56;4935053;28;20522;-84
2022/09/10 02:05:26;;;;;;;2.97;0.68;;;;;;;14.53;100.00;100421.41;4938003;28;20039;-84
2022/09/10 02:08:00;;;;;;;4.68;0.85;;;;;;;14.54;100.00;100423.13;4931183;28;20160;-83
2022/09/10 02:10:27;;;;;;;0.82;0.57;;;;;;;14.55;100.00;100418.75;4942659;28;20079;-84
2022/09/10 02:12:54;;;;;;;1.35;0.93;;;;;;;14.56;100.00;100420.44;4911756;28;20047;-84
2022/09/10 02:15:23;;;;;;;0.70;0.70;;;;;;;14.56;100.00;100421.31;4912696;28;20421;-82
2022/09/10 02:17:52;;;;;;;1.25;0.65;;;;;;;14.57;100.00;100422.19;4927202;28;20049;-82
2022/09/10 02:20:20;;;;;;;2.10;0.43;;;;;;;14.57;100.00;100424.81;4901476;28;20072;-82
2022/09/10 02:22:55;;;;;;;4.57;1.05;;;;;;;14.56;100.00;100426.59;4928603;28;20054;-84
2022/09/10 02:25:22;;;;;;;1.13;0.68;;;;;;;14.58;100.00;100429.19;4913070;28;20497;-83
2022/09/10 02:27:50;;;;;;;0.77;0.70;;;;;;;14.61;100.00;100433.50;4920146;28;20107;-83
2022/09/10 02:30:19;;;;;;;0.73;0.35;;;;;;;14.58;100.00;100431.81;4966162;28;20039;-81
2022/09/10 02:32:46;;;;;;;2.63;0.90;;;;;;;14.60;100.00;100435.28;4930485;28;20055;-84
2022/09/10 02:35:15;;;;;;;0.85;0.50;;;;;;;14.65;100.00;100440.44;4916741;28;20131;-83
2022/09/10 02:37:42;;;;;;;0.65;0.30;;;;;;;14.68;100.00;100437.72;4919591;28;20138;-84
2022/09/10 02:40:10;;;;;;;0.70;0.40;;;;;;;14.71;100.00;100432.34;4927858;28;20143;-83
2022/09/10 02:42:37;;;;;;;2.08;0.50;;;;;;;14.73;100.00;100435.78;4928860;28;20149;-83
2022/09/10 02:45:05;;;;;;;0.63;0.40;;;;;;;14.73;100.00;100433.16;4926336;28;20047;-83
2022/09/10 02:47:32;;;;;;;3.28;0.60;;;;;;;14.75;100.00;100439.25;4950046;28;20695;-83
2022/09/10 02:50:00;;;;;;;1.27;0.77;;;;;;;14.75;100.00;100433.97;4931483;28;20062;-84
2022/09/10 02:52:28;;;;;;;0.88;0.45;;;;;;;14.75;100.00;100433.13;4943097;28;20042;-83
2022/09/10 02:54:54;;;;;;;1.27;1.08;;;;;;;14.72;100.00;100432.31;4931512;28;20067;-84
2022/09/10 02:57:24;;;;;;;0.40;0.38;;;;;;;14.71;100.00;100427.09;4954146;28;20074;-85
2022/09/10 02:59:55;;;;;;;0.40;0.40;;;;;;;14.69;100.00;100427.13;4939083;28;20137;-83
2022/09/10 03:02:23;;;;;;;1.50;0.45;;;;;;;14.65;100.00;100428.13;4907106;28;20085;-84
2022/09/10 03:04:49;;;;;;;0.40;0.40;;;;;;;14.62;100.00;100427.31;4932650;28;20084;-84
2022/09/10 03:07:18;;;;;;;1.73;0.73;;;;;;;14.63;100.00;100432.53;4917386;28;20129;-84
2022/09/10 03:09:51;;;;;;;3.35;0.73;;;;;;;14.62;100.00;100435.22;4951053;28;20050;-84
2022/09/10 03:12:17;;;;;;;0.95;0.88;;;;;;;14.61;100.00;100441.41;4930698;28;20044;-83
2022/09/10 03:14:47;;;;;;;3.45;1.05;;;;;;;14.62;100.00;100437.88;4914609;28;20054;-83
2022/09/10 03:17:14;;;;;;;0.90;0.90;;;;;;;14.60;100.00;100440.56;4916616;28;20043;-84
2022/09/10 03:19:42;;;;;;;2.83;0.90;;;;;;;14.62;100.00;100437.88;4930003;28;20078;-82
2022/09/10 03:22:10;;;;;;;1.60;0.60;;;;;;;14.67;100.00;100444.75;4915563;28;20055;-83
2022/09/10 03:24:38;;;;;;;1.02;0.90;;;;;;;14.71;100.00;100451.66;4930936;28;20217;-82
2022/09/10 03:27:05;;;;;;;1.17;1.00;;;;;;;14.75;100.00;100452.44;4922000;28;20047;-83
2022/09/10 03:29:32;;;;;;;1.55;1.13;;;;;;;14.67;100.00;100450.00;4919745;29;20059;-83
2022/09/10 03:32:00;;;;;;;6.63;2.03;;;;;;;14.33;100.00;100443.06;4931299;28;20113;-84
2022/09/10 03:34:28;;;;;;;4.93;2.30;;;;;;;14.12;100.00;100451.53;4944668;28;20071;-84
2022/09/10 03:36:56;;;;;;;2.63;1.83;;;;;;;13.99;100.00;100445.75;4897185;28;20062;-84
2022/09/10 03:39:23;;;;;;;3.20;1.90;;;;;;;13.84;100.00;100447.84;4933005;28;20159;-85
2022/09/10 03:41:49;;;;;;;2.63;1.17;;;;;;;13.78;100.00;100448.03;4935716;28;20058;-85
2022/09/10 03:44:16;;;;;;;4.53;1.85;;;;;;;13.73;100.00;100453.41;4934526;28;20042;-85
2022/09/10 03:46:44;;;;;;;5.80;1.92;;;;;;;13.70;100.00;100449.97;4938109;29;20069;-85
2022/09/10 03:49:11;;;;;;;2.58;1.65;;;;;;;13.68;100.00;100450.00;4936473;28;20094;-84
2022/09/10 03:51:40;;;;;;;3.13;1.88;;;;;;;13.71;100.00;100449.97;4942555;28;20682;-84
2022/09/10 03:54:06;;;;;;;3.13;1.92;;;;;;;13.77;100.00;100453.34;4936603;28;20972;-85
2022/09/10 03:56:33;;;;;;;4.80;2.17;;;;;;;13.80;100.00;100455.88;4934899;28;20052;-86
2022/09/10 03:59:06;;;;;;;2.67;2.03;;;;;;;13.81;100.00;100453.19;4937720;28;20495;-86
2022/09/10 04:01:33;;;;;;;2.90;1.88;;;;;;;13.82;100.00;100452.31;4920578;28;20059;-84
2022/09/10 04:04:04;;;;;;;9.50;4.30;;;;;;;13.79;100.00;100447.09;4936726;28;20047;-85
2022/09/10 04:06:37;;;;;;;3.95;2.92;;;;;;;13.78;100.00;100455.03;4950123;28;20123;-85
2022/09/10 04:09:04;;;;;;;2.15;1.88;;;;;;;13.73;100.00;100449.91;4934640;28;20051;-86
2022/09/10 04:11:31;;;;;;;3.17;1.58;;;;;;;13.70;100.00;100452.59;4916997;28;20061;-87
2022/09/10 04:14:03;;;;;;;5.97;2.70;;;;;;;13.65;100.00;100455.38;4915898;28;20067;-87
2022/09/10 04:16:31;;;;;;;2.58;2.05;;;;;;;13.62;100.00;100455.41;4904570;28;20853;-83
2022/09/10 04:18:58;;;;;;;3.58;2.45;;;;;;;13.59;100.00;100452.03;4934195;29;20063;-84
2022/09/10 04:21:30;;;;;;;3.00;1.90;;;;;;;13.63;100.00;100457.16;4934203;28;20047;-85
2022/09/10 04:23:58;;;;;;;2.50;2.30;;;;;;;13.66;100.00;100456.22;4924345;28;20561;-85
2022/09/10 04:26:24;;;;;;;5.30;2.70;;;;;;;13.66;100.00;100458.84;4931904;28;20101;-85
2022/09/10 04:28:52;;;;;;;2.75;2.08;;;;;;;13.64;100.00;100456.25;4922604;28;20142;-85
2022/09/10 04:31:19;;;;;;;4.88;2.47;;;;;;;13.60;100.00;100453.72;4935263;28;20044;-85
2022/09/10 04:33:47;;;;;;;2.60;2.40;;;;;;;13.57;100.00;100452.91;4932866;28;20076;-86
2022/09/10 04:36:13;;;;;;;2.15;1.88;;;;;;;13.56;100.00;100448.56;4957816;28;20035;-85
2022/09/10 04:38:42;;;;;;;5.38;1.85;;;;;;;13.54;100.00;100449.50;4953795;28;20046;-85
2022/09/10 04:41:14;;;;;;;3.03;2.15;;;;;;;13.51;100.00;100446.94;4956623;28;20130;-85
2022/09/10 04:43:46;;;;;;;4.88;2.13;;;;;;;13.50;100.00;100455.75;4919725;28;20043;-84
2022/09/10 04:46:16;;;;;;;2.33;1.63;;;;;;;13.46;100.00;100454.94;4934276;29;20098;-85
2022/09/10 04:48:43;;;;;;;3.30;2.40;;;;;;;13.47;100.00;100455.81;4928412;28;20098;-85
2022/09/10 04:51:12;;;;;;;5.32;2.88;;;;;;;13.45;100.00;100455.84;4949369;28;20435;-84
2022/09/10 04:53:45;;;;;;;2.95;1.85;;;;;;;13.43;100.00;100455.03;4917962;28;20069;-85
2022/09/10 04:56:12;;;;;;;4.57;2.33;;;;;;;13.42;100.00;100462.97;4919693;28;20182;-85
2022/09/10 04:58:39;;;;;;;3.22;1.80;;;;;;;13.37;100.00;100458.66;4920646;28;20047;-87
2022/09/10 05:01:08;;;;;;;2.92;2.08;;;;;;;13.36;100.00;100462.19;4934819;29;20043;-84
2022/09/10 05:03:35;;;;;;;1.73;1.63;;;;;;;13.32;100.00;100459.63;4932847;28;20043;-84
2022/09/10 05:06:02;;;;;;;2.25;2.05;;;;;;;13.39;100.00;100470.00;4913470;29;20141;-85
2022/09/10 05:08:31;;;;;;;6.35;1.67;;;;;;;13.45;100.00;100460.25;4933843;28;20114;-84
2022/09/10 05:11:01;;;;;;;3.78;2.00;;;;;;;13.44;100.00;100466.41;4936411;28;20085;-85
2022/09/10 05:13:33;;;;;;;2.22;1.98;;;;;;;13.42;100.00;100461.19;4934868;28;20161;-85
2022/09/10 05:16:08;;;;;;;3.33;1.85;;;;;;;13.45;100.00;100466.34;4940205;29;20076;-86
2022/09/10 05:18:35;;;;;;;1.92;1.83;;;;;;;13.45;100.00;100473.38;4927724;29;20111;-85
2022/09/10 05:21:04;;;;;;;3.38;1.92;;;;;;;13.46;100.00;100472.50;4917428;28;20110;-85
2022/09/10 05:23:35;;;;;;;1.52;1.42;;;;;;;13.48;100.00;100470.69;4933505;28;20074;-86
2022/09/10 05:26:04;;;;;;;4.00;1.55;;;;;;;13.50;100.00;100469.75;4920042;28;20051;-86
2022/09/10 05:28:31;;;;;;;2.50;1.73;;;;;;;13.54;100.00;100470.53;4918729;29;20043;-85
2022/09/10 05:30:58;;;;;;;2.42;1.63;;;;;;;13.60;100.00;100478.28;4903227;29;20667;-85
2022/09/10 05:33:25;;;;;;;4.25;2.00;;;;;;;13.65;100.00;100480.78;4916559;28;20051;-84
2022/09/10 05:35:53;;;;;;;1.15;1.15;;;;;;;13.69;100.00;100470.16;4934281;28;20135;-86
2022/09/10 05:38:25;;;;;;;2.08;1.80;;;;;;;13.76;100.00;100472.66;4924703;28;20043;-86
2022/09/10 05:40:52;;;;;;;2.88;2.20;;;;;;;13.82;100.00;100476.00;4937185;28;20113;-86
2022/09/10 05:43:21;;;;;;;2.97;1.58;;;;;;;13.88;100.00;100477.59;4932102;28;20054;-85
2022/09/10 05:45:50;;;;;;;1.92;1.70;;;;;;;13.88;100.00;100473.22;4932758;28;20403;-84
2022/09/10 05:48:17;;;;;;;3.72;1.83;;;;;;;13.90;100.00;100475.78;4955094;28;20058;-85
2022/09/10 05:50:45;;;;;;;2.15;1.50;;;;;;;13.90;100.00;100478.44;4927307;28;20054;-85
2022/09/10 05:53:13;;;;;;;1.85;1.73;;;;;;;13.88;100.00;100477.59;4923236;28;20518;-84
2022/09/10 05:55:42;;;;;;;5.25;1.58;;;;;;;13.84;100.00;100476.78;4955237;28;20612;-84
2022/09/10 05:58:12;;;;;;;2.47;1.30;;;;;;;13.82;100.00;100475.09;4954939;28;20065;-84
2022/09/10 06:00:42;;;;;;;1.05;1.05;;;;;;;13.83;100.00;100466.31;4952338;28;20142;-85
2022/09/10 06:03:11;;;;;;;3.05;1.88;;;;;;;13.90;100.00;100470.53;4904867;28;20063;-84
2022/09/10 06:05:47;;;;;;;2.10;1.77;;;;;;;14.01;100.00;100468.47;4955723;28;20073;-84
2022/09/10 06:08:24;;;;;;;1.75;1.40;;;;;;;14.14;100.00;100473.41;4956743;28;20077;-84
2022/09/10 06:11:02;;;;;;;4.00;1.40;;;;;;;14.21;100.00;100461.84;4952104;28;20090;-85
2022/09/10 06:13:30;;;;;;;1.45;1.35;;;;;;;14.18;100.00;100461.91;4937217;28;20386;-85
2022/09/10 06:15:59;;;;;;;2.40;1.15;;;;;;;14.06;100.00;100458.69;4955255;28;20061;-86
2022/09/10 06:18:30;;;;;;;1.50;1.30;;;;;;;13.97;100.00;100469.44;4954272;28;20057;-84
2022/09/10 06:21:09;;;;;;;2.92;1.45;;;;;;;13.89;100.00;100463.53;4933404;28;20083;-86
2022/09/10 06:23:36;;;;;;;2.60;1.40;;;;;;;13.83;100.00;100471.56;4972145;28;20054;-84
2022/09/10 06:26:11;;;;;;;1.73;1.42;;;;;;;14.02;100.00;100466.72;4943667;28;20770;-85
2022/09/10 06:28:37;;;;;;;1.75;1.40;;;;;;;14.32;100.00;100466.78;4940510;28;20078;-85
2022/09/10 06:31:13;;;;;;;4.35;2.03;;;;;;;14.59;100.00;100473.06;4956052;28;20035;-86
2022/09/10 06:33:39;;;;;;;2.50;1.90;;;;;;;14.66;100.00;100465.88;4930893;28;20054;-86
2022/09/10 06:36:11;;;;;;;1.60;1.30;;;;;;;14.54;100.00;100467.06;4942977;28;20054;-85
2022/09/10 06:38:42;;;;;;;8.53;2.57;;;;;;;14.55;100.00;100474.91;4965953;28;20038;-83
2022/09/10 06:41:16;;;;;;;14.05;1.83;;;;;;;14.80;100.00;100476.88;4963317;28;20046;-85
2022/09/10 06:43:42;;;;;;;5.38;1.73;;;;;;;15.11;100.00;100478.59;4947146;28;20101;-84
2022/09/10 06:46:17;;;;;;;3.85;1.67;;;;;;;15.47;100.00;100469.56;4962303;28;20050;-84
2022/09/10 06:48:44;;;;;;;1.23;1.08;;;;;;;15.84;100.00;100479.81;4934109;28;20161;-84
2022/09/10 06:51:15;;;;;;;1.30;1.10;;;;;;;16.30;100.00;100485.28;4938002;28;20054;-84
2022/09/10 06:53:46;;;;;;;2.63;1.50;;;;;;;16.68;100.00;100482.16;4965998;28;20050;-84
2022/09/10 06:56:17;;;;;;;4.13;1.33;;;;;;;16.96;100.00;100474.09;4965434;28;20057;-85
2022/09/10 06:58:44;;;;;;;2.10;0.80;;;;;;;17.30;100.00;100491.28;4936889;28;20858;-83
2022/09/10 07:01:16;;;;;;;1.13;1.10;;;;;;;17.58;100.00;100481.38;4955418;28;20566;-82
2022/09/10 07:03:44;;;;;;;1.98;1.67;;;;;;;18.00;98.79;100484.06;4954811;28;20068;-85
2022/09/10 07:06:18;;;;;;;0.93;0.68;;;;;;;18.26;94.91;100479.38;4939924;28;20386;-85
2022/09/10 07:09:09;;;;;;;1.98;0.63;;;;;;;18.55;92.75;100479.03;4939401;28;20061;-85
2022/09/10 07:11:43;;;;;;;2.42;1.83;;;;;;;18.92;91.85;100480.03;4974685;28;20465;-84
2022/09/10 07:14:15;;;;;;;2.47;0.98;;;;;;;19.26;90.09;100486.41;4958355;28;20121;-85
2022/09/10 07:16:50;;;;;;;4.68;0.68;;;;;;;19.29;85.27;100497.72;4944955;28;20054;-83
2022/09/10 07:19:21;;;;;;;2.58;1.35;;;;;;;19.64;83.00;100492.47;4960743;28;20074;-84
2022/09/10 07:21:58;;;;;;;1.17;0.60;;;;;;;20.02;81.59;100494.19;4961888;28;20221;-84
2022/09/10 07:24:34;;;;;;;2.47;0.80;;;;;;;20.45;80.62;100491.09;4945983;28;20120;-84
2022/09/10 07:27:02;;;;;;;2.10;0.85;;;;;;;20.82;74.51;100490.00;4975235;28;20054;-84
2022/09/10 07:29:34;;;;;;;1.65;0.75;;;;;;;20.98;73.06;100495.34;4941365;28;20126;-85
2022/09/10 07:32:03;;;;;;;1.02;0.82;;;;;;;20.86;74.48;100506.69;4952656;28;20043;-84
2022/09/10 07:34:30;;;;;;;1.73;0.90;;;;;;;21.24;71.32;100505.50;4955029;28;20062;-85
2022/09/10 07:36:56;;;;;;;1.27;0.82;;;;;;;21.73;70.90;100504.53;4960086;28;20067;-87
2022/09/10 07:39:25;;;;;;;1.23;0.75;;;;;;;22.01;69.24;100511.75;4949445;28;20046;-84
2022/09/10 07:41:59;;;;;;;2.28;0.47;;;;;;;22.09;66.02;100503.31;4969896;28;20069;-84
2022/09/10 07:44:42;;;;;;;2.38;0.45;;;;;;;22.48;66.63;100506.38;4967766;28;20764;-84
2022/09/10 07:47:11;;;;;;;2.38;1.00;;;;;;;22.46;65.25;100517.97;4948014;28;20053;-85
2022/09/10 07:55:01;;;;;;;0.82;0.38;;;;;;;23.52;60.87;100508.72;4954028;28;20130;-86
2022/09/10 07:57:31;;;;;;;0.90;0.52;;;;;;;22.76;59.33;100516.16;4992991;28;20130;-85
2022/09/10 07:59:59;;;;;;;1.85;0.70;;;;;;;21.97;63.23;100521.75;4947972;28;20074;-84
2022/09/10 08:02:28;;;;;;;2.60;0.73;;;;;;;21.97;64.53;100524.41;4962724;28;20795;-86
2022/09/10 08:05:03;;;;;;;2.15;0.77;;;;;;;22.09;61.53;100522.81;4931337;28;20051;-86
2022/09/10 08:07:34;;;;;;;4.78;0.68;;;;;;;21.94;62.02;100527.25;4963623;28;20077;-83
2022/09/10 08:10:06;;;;;;;1.55;0.57;;;;;;;22.13;61.67;100531.50;4947883;28;20125;-86
2022/09/10 08:15:34;;;;;;;2.92;0.90;;;;;;;23.26;57.99;100532.66;4945334;28;20126;-85
2022/09/10 08:18:02;;;;;;;0.55;0.50;;;;;;;24.17;55.10;100537.38;4938668;28;20051;-86
2022/09/10 08:20:33;;;;;;;0.88;0.50;;;;;;;24.95;54.31;100540.94;4953986;28;20566;-84
2022/09/10 08:23:04;;;;;;;2.30;0.88;;;;;;;25.15;51.81;100544.88;4971405;28;20047;-85
2022/09/10 08:25:39;;;;;;;1.98;0.50;;;;;;;25.50;50.27;100545.97;4963788;28;20070;-86
2022/09/10 08:28:07;;;;;;;2.35;0.88;;;;;;;25.85;49.23;100546.03;4957718;28;20135;-85
2022/09/10 08:30:35;;;;;;;1.13;0.30;;;;;;;25.91;48.60;100544.72;4960551;28;20141;-85
2022/09/10 08:33:05;;;;;;;0.90;0.40;;;;;;;25.44;49.24;100552.66;4950581;28;20063;-85
2022/09/10 08:35:32;;;;;;;0.50;0.50;;;;;;;24.65;51.00;100549.31;4953384;28;20060;-86
2022/09/10 08:37:59;;;;;;;3.40;0.73;;;;;;;24.22;52.19;100550.44;4970284;28;20069;-85
2022/09/10 08:40:30;;;;;;;2.22;0.65;;;;;;;23.52;52.15;100551.44;4961288;28;20078;-85
2022/09/10 08:43:09;;;;;;;0.98;0.38;;;;;;;22.76;54.78;100557.06;4977633;28;20053;-86
2022/09/10 08:45:40;;;;;;;1.08;0.70;;;;;;;21.95;57.81;100557.44;4970073;28;20038;-85
2022/09/10 08:48:28;;;;;;;3.40;0.52;;;;;;;22.05;57.27;100563.09;4956849;28;20050;-83
2022/09/10 08:51:14;;;;;;;1.52;0.40;;;;;;;23.87;53.92;100553.63;4971042;28;20057;-85
2022/09/10 08:54:11;;;;;;;3.08;0.40;;;;;;;24.66;49.61;100559.06;4956817;28;20130;-86
2022/09/10 08:56:41;;;;;;;0.70;0.40;;;;;;;23.73;52.51;100560.75;4942827;28;20061;-84
2022/09/10 08:59:28;;;;;;;2.03;0.25;;;;;;;23.08;53.63;100559.53;4970920;28;20068;-85
2022/09/10 09:02:20;;;;;;;1.08;0.40;;;;;;;22.34;56.46;100565.84;4976342;28;20109;-83
2022/09/10 09:04:55;;;;;;;3.50;0.80;;;;;;;21.95;57.56;100563.63;4971876;28;20737;-84
2022/09/10 09:07:22;;;;;;;0.70;0.30;;;;;;;21.61;58.67;100562.03;4955496;28;20348;-83
2022/09/10 09:09:59;;;;;;;0.77;0.52;;;;;;;21.35;59.76;100560.81;4970012;28;20045;-84
2022/09/10 09:12:39;;;;;;;5.05;0.65;;;;;;;21.41;59.90;100566.66;4953221;28;20510;-84
2022/09/10 09:15:14;;;;;;;2.20;0.70;;;;;;;21.49;59.91;100564.41;4951440;28;20057;-85
2022/09/10 09:18:09;;;;;;;1.05;0.30;;;;;;;21.61;59.26;100565.53;4966980;28;20057;-86
2022/09/10 09:20:58;;;;;;;2.42;0.30;;;;;;;21.69;59.47;100567.78;4951673;28;20070;-84
2022/09/10 09:23:48;;;;;;;0.30;0.30;;;;;;;21.77;59.84;100568.22;4947894;28;20054;-83
2022/09/10 09:26:17;;;;;;;3.17;0.47;;;;;;;22.04;59.04;100564.88;4951066;28;20117;-84
2022/09/10 09:29:04;;;;;;;2.55;0.47;;;;;;;22.18;58.53;100558.75;4948558;28;20081;-85
2022/09/10 09:31:36;;;;;;;0.60;0.60;;;;;;;21.94;59.11;100563.69;4936973;28;20057;-85
2022/09/10 09:34:42;;;;;;;1.67;0.55;;;;;;;21.81;59.54;100561.75;4952023;28;20055;-84
2022/09/10 09:37:25;;;;;;;1.65;0.55;;;;;;;22.29;58.03;100555.44;4947609;28;20054;-85
2022/09/10 09:40:53;;;;;;;2.47;0.30;;;;;;;22.40;57.24;100557.50;4947040;28;20101;-85
2022/09/10 09:43:40;;;;;;;2.05;0.50;;;;;;;22.04;57.73;100559.53;4965256;28;20078;-86
2022/09/10 09:46:24;;;;;;;1.38;0.50;;;;;;;21.97;57.86;100560.88;4954704;28;20062;-85
2022/09/10 09:48:59;;;;;;;0.80;0.50;;;;;;;21.89;58.31;100560.44;4972319;28;20494;-85
2022/09/10 09:51:34;;;;;;;0.90;0.40;;;;;;;21.72;58.60;100569.41;4954508;28;20061;-84
2022/09/10 09:54:13;;;;;;;1.20;0.65;;;;;;;21.56;59.14;100564.97;4933305;28;20059;-85
2022/09/10 09:56:57;;;;;;;1.70;0.60;;;;;;;21.47;60.06;100560.09;4958999;28;20050;-86
2022/09/10 09:59:33;;;;;;;2.08;0.52;;;;;;;21.63;60.02;100557.50;4954228;28;20053;-85
2022/09/10 10:02:13;;;;;;;0.70;0.40;;;;;;;21.97;58.06;100553.72;4961736;28;20078;-86
2022/09/10 10:05:25;;;;;;;2.10;0.50;;;;;;;22.73;55.63;100561.72;4950202;28;20133;-84
2022/09/10 10:07:52;;;;;;;1.98;0.50;;;;;;;23.05;55.33;100556.19;4956790;28;20070;-85
2022/09/10 10:13:49;;;;;;;1.80;0.25;;;;;;;23.78;52.37;100547.09;5085331;27;20905;-84
2022/09/10 10:16:26;;;;;;;0.57;0.57;;;;;;;24.17;49.98;100542.75;5046988;28;20053;-85
2022/09/10 10:18:53;;;;;;;1.25;0.40;;;;;;;25.94;47.15;100547.16;5064915;28;20055;-86
2022/09/10 10:21:29;;;;;;;1.25;0.60;;;;;;;27.59;42.56;100532.53;5086527;28;20051;-84
2022/09/10 10:23:57;;;;;;;1.85;0.82;;;;;;;28.87;40.86;100535.16;5053129;28;20053;-85
2022/09/10 10:26:34;;;;;;;0.75;0.75;;;;;;;29.25;37.86;100541.66;5038217;28;20030;-85
2022/09/10 10:29:16;;;;;;;0.85;0.22;;;;;;;29.11;39.70;100539.34;5057135;28;20114;-86
2022/09/10 10:31:48;;;;;;;0.32;0.30;;;;;;;29.25;38.89;100538.94;5037471;28;20049;-85
2022/09/10 10:34:36;;;;;;;1.38;0.50;;;;;;;28.75;38.81;100534.41;5035175;28;20060;-86
2022/09/10 10:37:55;;;;;;;0.68;0.20;;;;;;;28.28;39.49;100528.56;5094175;28;20030;-87
2022/09/10 10:40:44;;;;;;;1.77;0.30;;;;;;;27.36;41.56;100529.88;5069018;28;20018;-88
2022/09/10 10:43:36;;;;;;;0.20;0.20;;;;;;;26.77;43.02;100529.22;5068788;28;20041;-86
2022/09/10 10:46:08;;;;;;;0.70;0.45;;;;;;;26.81;43.98;100525.31;5070105;28;20104;-85
2022/09/10 10:49:31;;;;;;;9.00;0.40;;;;;;;27.12;41.63;100527.34;5058101;28;20046;-85
2022/09/10 10:52:50;;;;;;;1.35;0.20;;;;;;;28.96;36.96;100530.78;5049803;28;20427;-85
2022/09/10 10:55:44;;;;;;;1.98;0.38;;;;;;;27.81;39.23;100531.59;5015097;28;20412;-84
2022/09/10 10:59:17;;;;;;;0.50;0.30;;;;;;;27.45;40.67;100528.31;5075519;28;20053;-86
2022/09/10 11:01:54;;;;;;;0.82;0.22;;;;;;;28.30;39.52;100538.22;5022169;28;20113;-86
2022/09/10 11:04:42;;;;;;;1.38;0.30;;;;;;;27.87;38.69;100533.78;5002547;28;20077;-87
2022/09/10 11:07:28;;;;;;;0.75;0.40;;;;;;;26.68;41.68;100537.97;5029741;28;20076;-86
2022/09/10 11:10:14;;;;;;;2.40;0.77;;;;;;;26.40;43.31;100537.47;5055667;28;20103;-86
2022/09/10 11:13:04;;;;;;;1.13;0.50;;;;;;;28.10;40.04;100534.56;5041742;28;20051;-86
2022/09/10 11:15:47;;;;;;;0.90;0.25;;;;;;;29.52;37.51;100527.53;5043778;28;20057;-86
2022/09/10 11:18:27;;;;;;;1.15;0.52;;;;;;;32.22;34.01;100512.50;5077523;28;20519;-85
2022/09/10 11:21:13;;;;;;;1.23;0.20;;;;;;;33.66;31.78;100514.44;5047679;28;20476;-86
2022/09/10 11:24:05;;;;;;;0.68;0.20;;;;;;;34.23;29.25;100508.16;5025495;28;20052;-86
2022/09/10 11:27:08;;;;;;;0.70;0.52;;;;;;;32.99;31.25;100509.88;5016308;28;20053;-86
2022/09/10 11:29:58;;;;;;;2.53;0.22;;;;;;;30.61;33.83;100514.81;5028581;28;20042;-86
2022/09/10 11:33:02;;;;;;;0.63;0.40;;;;;;;29.69;35.65;100519.75;5014163;28;20038;-86
2022/09/10 11:35:35;;;;;;;0.70;0.20;;;;;;;31.01;33.43;100506.38;5030188;28;20049;-86
2022/09/10 11:41:22;;;;;;;0.10;0.10;;;;;;;34.28;28.05;100494.06;5028861;28;20049;-86
2022/09/10 11:44:24;;;;;;;0.30;0.25;;;;;;;35.09;27.76;100494.00;5026865;28;20120;-87
2022/09/10 11:47:16;;;;;;;1.60;0.17;;;;;;;34.87;28.30;100496.47;5060803;28;20496;-89
2022/09/10 11:50:02;;;;;;;1.98;0.30;;;;;;;35.39;27.67;100491.44;5011842;28;20048;-87
2022/09/10 11:52:33;;;;;;;0.52;0.20;;;;;;;35.84;27.53;100497.91;5040648;28;20052;-88
2022/09/10 11:55:22;;;;;;;2.47;0.30;;;;;;;35.48;27.22;100487.63;5024060;28;20037;-86
2022/09/10 11:58:15;;;;;;;1.23;0.20;;;;;;;35.17;26.81;100491.22;4997615;28;20049;-87
2022/09/10 12:01:05;;;;;;;0.65;0.30;;;;;;;35.00;27.64;100495.06;5015484;28;20052;-87
2022/09/10 12:04:06;;;;;;;0.70;0.30;;;;;;;33.91;28.07;100495.47;5026369;28;20049;-87
2022/09/10 12:07:08;;;;;;;0.17;0.10;;;;;;;31.29;31.97;100492.00;5030414;28;20041;-87
2022/09/10 12:10:09;;;;;;;0.43;0.10;;;;;;;29.66;34.77;100501.13;5025442;28;20045;-87
2022/09/10 12:13:00;;;;;;;1.00;0.40;;;;;;;29.59;34.44;100495.47;5035595;28;20053;-85